Time;durP1;ratioP1;P1;durP2;ratioP2;P2;SDS_P1;SDS_P2;PMS_P1;PMS_P2;Temp;Humidity;BMP_temperature;BMP_pressure;BME280_temperature;BME280_humidity;BME280_pressure;Samples;Min_cycle;Max_cycle;Signal;HPM_P1;HPM_P2
2022/07/25 00:00:38;;;;;;;4.70;4.30;;;22.50;96.70;;;;;;4991296;28;20050;-71
2022/07/25 00:03:03;;;;;;;3.92;3.63;;;22.40;96.90;;;;;;5000515;28;20018;-71
2022/07/25 00:05:30;;;;;;;4.88;4.40;;;22.30;97.10;;;;;;4995172;28;20045;-71
2022/07/25 00:07:55;;;;;;;4.97;4.57;;;22.30;97.30;;;;;;4990076;28;20019;-71
2022/07/25 00:10:22;;;;;;;4.80;4.40;;;22.20;97.20;;;;;;4989494;28;20467;-71
2022/07/25 00:12:47;;;;;;;4.63;3.97;;;22.30;97.30;;;;;;4994519;28;20446;-71
2022/07/25 00:15:13;;;;;;;5.15;3.65;;;22.20;97.10;;;;;;5009296;28;20057;-71
2022/07/25 00:17:39;;;;;;;4.57;4.18;;;22.20;97.20;;;;;;5005939;28;20029;-71
2022/07/25 00:20:06;;;;;;;5.03;4.53;;;23.20;97.40;;;;;;5004851;28;20077;-71
2022/07/25 00:22:31;;;;;;;5.55;4.25;;;22.20;97.10;;;;;;4977549;28;20562;-71
2022/07/25 00:24:57;;;;;;;5.45;4.72;;;22.20;97.40;;;;;;4995659;28;20145;-71
2022/07/25 00:27:22;;;;;;;5.22;4.40;;;22.20;97.60;;;;;;4990570;28;20431;-71
2022/07/25 00:29:48;;;;;;;5.57;4.90;;;22.30;97.40;;;;;;4995961;28;20475;-71
2022/07/25 00:32:14;;;;;;;7.40;4.50;;;22.60;97.60;;;;;;5008038;28;20097;-71
2022/07/25 00:34:39;;;;;;;6.60;4.38;;;22.00;97.40;;;;;;4993317;28;20038;-71
2022/07/25 00:37:05;;;;;;;5.50;5.00;;;22.00;97.50;;;;;;4997037;28;20018;-71
2022/07/25 00:39:31;;;;;;;4.97;4.55;;;21.90;97.60;;;;;;4993904;28;20128;-71
2022/07/25 00:41:56;;;;;;;5.68;5.07;;;22.30;97.80;;;;;;5001338;28;20121;-71
2022/07/25 00:44:27;;;;;;;7.05;4.65;;;22.10;97.80;;;;;;5001102;28;20472;-70
2022/07/25 00:46:54;;;;;;;5.53;5.03;;;21.80;98.20;;;;;;4998998;28;20029;-71
2022/07/25 00:49:19;;;;;;;4.43;4.03;;;21.80;98.10;;;;;;5008861;28;20367;-71
2022/07/25 00:51:45;;;;;;;5.78;4.25;;;21.90;98.00;;;;;;4997242;28;20033;-71
2022/07/25 00:54:11;;;;;;;4.93;4.53;;;21.90;98.10;;;;;;4995655;28;20030;-71
2022/07/25 00:56:38;;;;;;;5.20;4.70;;;21.90;98.30;;;;;;4990478;28;20113;-71
2022/07/25 00:59:04;;;;;;;5.20;4.80;;;22.60;98.70;;;;;;4990708;28;20034;-71
2022/07/25 01:01:29;;;;;;;4.88;4.45;;;21.70;98.40;;;;;;5006528;28;20091;-71
2022/07/25 01:03:55;;;;;;;5.75;5.25;;;21.50;98.60;;;;;;5000786;28;20036;-71
2022/07/25 01:06:21;;;;;;;7.50;5.25;;;22.40;98.80;;;;;;5010190;28;20029;-71
2022/07/25 01:08:48;;;;;;;5.80;5.28;;;21.70;98.90;;;;;;4979033;28;20030;-71
2022/07/25 01:11:14;;;;;;;6.35;5.75;;;21.60;99.00;;;;;;5009540;28;20033;-70
2022/07/25 01:13:40;;;;;;;5.07;4.68;;;21.60;99.00;;;;;;5008838;28;20033;-71
2022/07/25 01:16:05;;;;;;;5.50;5.00;;;21.50;98.90;;;;;;5001669;28;20034;-71
2022/07/25 01:18:33;;;;;;;6.03;4.72;;;21.50;99.00;;;;;;5008625;28;20089;-71
2022/07/25 01:20:59;;;;;;;6.93;6.30;;;21.50;99.00;;;;;;5006147;28;20037;-71
2022/07/25 01:23:25;;;;;;;4.72;4.32;;;21.50;99.20;;;;;;4993941;28;20498;-71
2022/07/25 01:25:50;;;;;;;6.15;5.65;;;21.40;99.20;;;;;;5010146;28;20097;-71
2022/07/25 01:28:17;;;;;;;5.55;5.07;;;21.50;99.30;;;;;;5005349;28;20036;-71
2022/07/25 01:30:42;;;;;;;5.45;4.63;;;21.40;99.30;;;;;;5004990;28;20050;-71
2022/07/25 01:33:08;;;;;;;5.15;4.75;;;21.40;99.40;;;;;;5002254;28;20058;-70
2022/07/25 01:35:33;;;;;;;5.78;5.18;;;21.30;99.40;;;;;;5006096;28;20454;-71
2022/07/25 01:37:59;;;;;;;6.40;5.80;;;21.30;99.40;;;;;;4995050;28;20034;-71
2022/07/25 01:40:25;;;;;;;5.65;5.15;;;21.30;99.60;;;;;;4996326;28;20061;-71
2022/07/25 01:42:50;;;;;;;5.97;5.38;;;21.30;99.70;;;;;;4997936;28;20101;-71
2022/07/25 01:45:16;;;;;;;6.32;5.65;;;21.20;99.70;;;;;;5008265;28;20033;-71
2022/07/25 01:47:41;;;;;;;6.47;5.90;;;21.30;99.90;;;;;;4992040;28;20022;-71
2022/07/25 01:50:08;;;;;;;9.60;7.07;;;21.30;99.80;;;;;;4998008;28;20046;-71
2022/07/25 01:52:35;;;;;;;8.27;7.50;;;21.30;99.80;;;;;;5007788;28;20034;-71
2022/07/25 01:55:00;;;;;;;6.95;6.35;;;21.30;99.90;;;;;;4996068;28;20371;-71
2022/07/25 01:57:26;;;;;;;8.30;5.90;;;21.20;99.80;;;;;;5000953;28;20026;-71
2022/07/25 01:59:51;;;;;;;9.65;6.00;;;21.20;99.90;;;;;;5002518;28;20076;-71
2022/07/25 02:02:17;;;;;;;7.22;6.53;;;21.30;99.90;;;;;;5001743;28;20034;-71
2022/07/25 02:04:42;;;;;;;6.75;6.15;;;21.20;99.90;;;;;;5005349;28;20034;-71
2022/07/25 02:07:08;;;;;;;8.40;6.47;;;21.20;99.90;;;;;;5008192;28;20366;-71
2022/07/25 02:09:33;;;;;;;7.53;6.88;;;21.30;99.90;;;;;;5003188;28;20355;-71
2022/07/25 02:11:59;;;;;;;7.45;6.82;;;21.10;99.90;;;;;;4994523;28;20033;-71
2022/07/25 02:14:25;;;;;;;7.95;7.15;;;21.10;99.90;;;;;;5003349;28;20025;-71
2022/07/25 02:16:50;;;;;;;7.53;6.82;;;21.20;99.90;;;;;;4994925;28;20062;-71
2022/07/25 02:19:16;;;;;;;7.03;6.35;;;21.90;99.90;;;;;;5005301;28;20053;-71
2022/07/25 02:21:42;;;;;;;8.18;7.38;;;21.30;99.90;;;;;;4990620;28;20026;-71
2022/07/25 02:24:07;;;;;;;9.80;7.35;;;21.10;99.90;;;;;;4997430;28;20503;-70
2022/07/25 02:26:33;;;;;;;7.85;6.70;;;21.20;99.90;;;;;;4994975;28;20034;-71
2022/07/25 02:28:59;;;;;;;6.75;6.15;;;21.10;99.90;;;;;;5001566;28;20037;-71
2022/07/25 02:31:24;;;;;;;8.50;7.68;;;21.00;99.90;;;;;;4974128;28;20054;-71
2022/07/25 02:33:50;;;;;;;8.30;7.50;;;21.10;99.90;;;;;;5006038;28;20034;-71
2022/07/25 02:36:15;;;;;;;7.45;6.72;;;21.20;99.90;;;;;;5006278;28;20030;-71
2022/07/25 02:38:41;;;;;;;8.18;7.25;;;21.10;99.90;;;;;;4984245;28;20053;-69
2022/07/25 02:41:07;;;;;;;9.20;7.97;;;21.10;99.90;;;;;;5008477;28;20041;-69
2022/07/25 02:43:32;;;;;;;8.07;7.28;;;21.10;99.90;;;;;;4999592;28;20026;-69
2022/07/25 02:45:58;;;;;;;8.77;7.82;;;21.10;99.90;;;;;;5001889;28;20054;-69
2022/07/25 02:48:24;;;;;;;8.93;7.57;;;21.10;99.90;;;;;;4999598;28;20061;-69
2022/07/25 02:50:49;;;;;;;8.75;7.07;;;21.10;99.90;;;;;;4999432;28;20057;-69
2022/07/25 02:53:15;;;;;;;7.80;7.05;;;21.70;99.90;;;;;;5005693;28;20063;-69
2022/07/25 02:55:40;;;;;;;8.35;7.20;;;21.20;99.90;;;;;;5006321;28;20411;-69
2022/07/25 02:58:06;;;;;;;8.57;7.75;;;20.90;99.90;;;;;;5009402;28;20026;-69
2022/07/25 03:00:32;;;;;;;9.32;7.72;;;21.60;99.90;;;;;;5001167;28;20066;-69
2022/07/25 03:02:58;;;;;;;8.52;7.82;;;21.00;99.90;;;;;;5000811;28;20035;-69
2022/07/25 03:05:23;;;;;;;9.45;7.85;;;20.90;99.90;;;;;;5011803;28;20022;-69
2022/07/25 03:07:49;;;;;;;7.85;7.15;;;20.80;99.90;;;;;;4992192;28;20067;-69
2022/07/25 03:10:15;;;;;;;9.27;8.48;;;20.80;99.90;;;;;;4997902;28;20022;-69
2022/07/25 03:12:42;;;;;;;9.20;8.38;;;20.80;99.90;;;;;;5011813;28;20026;-69
2022/07/25 03:15:09;;;;;;;8.63;7.72;;;20.80;99.90;;;;;;5001577;28;20013;-69
2022/07/25 03:17:35;;;;;;;9.85;8.85;;;20.80;99.90;;;;;;4999505;28;20065;-69
2022/07/25 03:20:00;;;;;;;10.25;9.25;;;20.70;99.90;;;;;;4992151;28;20061;-69
2022/07/25 03:22:26;;;;;;;9.98;8.45;;;20.70;99.90;;;;;;4992139;28;20022;-69
2022/07/25 03:24:52;;;;;;;9.90;8.93;;;20.70;99.90;;;;;;4996965;28;20487;-69
2022/07/25 03:27:18;;;;;;;9.68;8.70;;;21.00;99.90;;;;;;4995848;28;20030;-69
2022/07/25 03:29:43;;;;;;;9.23;8.10;;;20.60;99.90;;;;;;5004320;28;20101;-69
2022/07/25 03:32:09;;;;;;;10.27;9.30;;;20.70;99.90;;;;;;4995538;28;20030;-69
2022/07/25 03:34:35;;;;;;;9.80;8.82;;;20.70;99.90;;;;;;4997792;28;20049;-69
2022/07/25 03:37:02;;;;;;;9.40;8.30;;;20.60;99.90;;;;;;4995564;28;20031;-69
2022/07/25 03:39:27;;;;;;;8.68;7.95;;;20.70;99.90;;;;;;5003870;28;20037;-70
2022/07/25 03:41:54;;;;;;;10.80;8.38;;;20.70;99.90;;;;;;4962932;28;20035;-69
2022/07/25 03:44:20;;;;;;;10.80;9.73;;;20.80;99.90;;;;;;5005291;28;20057;-69
2022/07/25 03:46:46;;;;;;;9.30;8.43;;;20.70;99.90;;;;;;4991911;28;20479;-69
2022/07/25 03:49:11;;;;;;;10.70;9.80;;;20.70;99.90;;;;;;5008840;28;20033;-69
2022/07/25 03:51:37;;;;;;;10.18;9.20;;;20.60;99.90;;;;;;5001495;28;20113;-69
2022/07/25 03:54:04;;;;;;;10.65;8.35;;;20.70;99.90;;;;;;4991956;28;20030;-69
2022/07/25 03:56:45;;;;;;;9.98;9.15;;;20.90;99.90;;;;;;4994039;28;20047;-69
2022/07/25 03:59:14;;;;;;;9.95;9.02;;;20.90;99.90;;;;;;4994123;28;20031;-69
2022/07/25 04:01:41;;;;;;;10.93;9.40;;;20.90;99.90;;;;;;4998343;28;20034;-69
2022/07/25 04:04:06;;;;;;;10.15;9.23;;;20.80;99.90;;;;;;5005595;28;20036;-71
2022/07/25 04:06:32;;;;;;;12.43;9.15;;;20.80;99.90;;;;;;4991053;28;20030;-69
2022/07/25 04:08:58;;;;;;;9.63;8.73;;;20.80;99.90;;;;;;4991641;28;20037;-69
2022/07/25 04:11:23;;;;;;;10.98;9.88;;;20.80;99.90;;;;;;4991385;28;20554;-69
2022/07/25 04:13:49;;;;;;;9.55;8.60;;;20.80;99.90;;;;;;5001705;28;20398;-69
2022/07/25 04:16:16;;;;;;;9.93;9.02;;;20.90;99.90;;;;;;5008019;28;20080;-69
2022/07/25 04:18:41;;;;;;;9.50;8.70;;;20.90;99.90;;;;;;4999904;28;20029;-69
2022/07/25 04:21:08;;;;;;;10.82;9.80;;;20.90;99.90;;;;;;5003666;28;20054;-69
2022/07/25 04:23:34;;;;;;;9.57;8.68;;;21.10;99.90;;;;;;4999585;28;20125;-69
2022/07/25 04:25:59;;;;;;;9.40;8.60;;;20.90;99.90;;;;;;5003936;28;20109;-69
2022/07/25 04:28:25;;;;;;;10.05;8.13;;;20.70;99.90;;;;;;4999697;28;20029;-69
2022/07/25 04:30:51;;;;;;;10.02;8.65;;;20.90;99.90;;;;;;5002127;28;20034;-69
2022/07/25 04:33:17;;;;;;;10.32;9.45;;;20.70;99.90;;;;;;4991076;28;20041;-70
2022/07/25 04:35:43;;;;;;;10.10;9.13;;;20.70;99.90;;;;;;4990736;28;20038;-69
2022/07/25 04:38:09;;;;;;;10.45;9.55;;;20.80;99.90;;;;;;4991194;28;20026;-69
2022/07/25 04:40:36;;;;;;;10.38;9.18;;;20.60;99.90;;;;;;4990425;28;20527;-69
2022/07/25 04:43:02;;;;;;;10.32;9.23;;;20.90;99.90;;;;;;5003402;28;20064;-69
2022/07/25 04:45:27;;;;;;;10.85;9.82;;;20.90;99.90;;;;;;5000001;28;20483;-69
2022/07/25 04:47:53;;;;;;;11.30;9.52;;;21.00;99.90;;;;;;4990967;28;20049;-70
2022/07/25 04:50:19;;;;;;;10.68;9.57;;;21.00;99.90;;;;;;4990299;28;20487;-69
2022/07/25 04:52:44;;;;;;;11.23;9.30;;;21.00;99.90;;;;;;4996568;28;20037;-69
2022/07/25 04:55:10;;;;;;;10.15;9.25;;;21.20;99.90;;;;;;4989789;28;20026;-69
2022/07/25 04:57:36;;;;;;;11.30;9.75;;;21.20;99.90;;;;;;4995547;28;20026;-69
2022/07/25 05:00:07;;;;;;;10.40;9.43;;;21.30;99.90;;;;;;5002720;28;20145;-69
2022/07/25 05:02:33;;;;;;;11.38;10.38;;;21.40;99.90;;;;;;5000607;28;20030;-69
2022/07/25 05:04:59;;;;;;;10.77;9.80;;;21.50;99.90;;;;;;4993882;28;20105;-70
2022/07/25 05:07:25;;;;;;;11.00;10.00;;;21.30;99.90;;;;;;4998894;28;20113;-69
2022/07/25 05:09:51;;;;;;;10.20;9.30;;;21.60;99.90;;;;;;5004131;28;20429;-69
2022/07/25 05:12:16;;;;;;;11.23;10.23;;;21.70;99.90;;;;;;5005642;28;20023;-70
2022/07/25 05:14:42;;;;;;;10.15;9.23;;;21.80;99.80;;;;;;4993890;28;20467;-69
2022/07/25 05:17:08;;;;;;;11.00;9.90;;;21.80;99.50;;;;;;5000385;28;20057;-69
2022/07/25 05:19:34;;;;;;;14.27;10.65;;;22.00;99.30;;;;;;4990053;28;20077;-70
2022/07/25 05:21:59;;;;;;;12.55;10.80;;;22.00;99.00;;;;;;4991592;28;20018;-69
2022/07/25 05:24:25;;;;;;;10.93;9.93;;;22.00;98.90;;;;;;4993205;28;20045;-69
2022/07/25 05:26:50;;;;;;;13.80;11.18;;;22.10;98.80;;;;;;4997365;28;20052;-69
2022/07/25 05:29:16;;;;;;;11.50;10.50;;;22.10;98.70;;;;;;5003877;28;20088;-70
2022/07/25 05:31:41;;;;;;;11.60;10.48;;;23.30;98.80;;;;;;4992323;28;20673;-70
2022/07/25 05:34:07;;;;;;;12.05;10.85;;;22.10;98.70;;;;;;4991543;28;20418;-70
2022/07/25 05:36:33;;;;;;;11.88;10.77;;;22.20;98.40;;;;;;5002087;28;20505;-70
2022/07/25 05:38:59;;;;;;;12.45;11.15;;;22.20;98.20;;;;;;4993646;28;20493;-70
2022/07/25 05:41:25;;;;;;;11.13;10.00;;;22.20;98.20;;;;;;4995163;28;20433;-69
2022/07/25 05:43:51;;;;;;;12.18;11.07;;;22.20;98.00;;;;;;4992841;28;20030;-69
2022/07/25 05:46:17;;;;;;;14.65;11.70;;;22.80;98.00;;;;;;5006241;28;20540;-70
2022/07/25 05:48:42;;;;;;;13.48;11.90;;;22.40;97.80;;;;;;4999439;28;20034;-70
2022/07/25 05:51:08;;;;;;;13.38;12.15;;;22.60;97.80;;;;;;4996239;28;20058;-70
2022/07/25 05:53:34;;;;;;;13.18;10.40;;;22.50;97.80;;;;;;4994919;28;20053;-69
2022/07/25 05:56:00;;;;;;;11.93;10.77;;;22.60;97.60;;;;;;4990432;28;20064;-69
2022/07/25 05:58:26;;;;;;;13.00;11.63;;;22.60;97.30;;;;;;5005759;28;20050;-70
2022/07/25 06:00:51;;;;;;;12.45;11.35;;;22.80;97.30;;;;;;4998507;28;20066;-69
2022/07/25 06:03:18;;;;;;;11.95;10.75;;;22.90;96.90;;;;;;4991181;28;20033;-70
2022/07/25 06:05:45;;;;;;;13.10;11.85;;;23.00;96.80;;;;;;5009270;28;20514;-70
2022/07/25 06:08:12;;;;;;;10.52;9.60;;;23.20;96.70;;;;;;4994807;28;20052;-70
2022/07/25 06:10:38;;;;;;;13.00;11.68;;;23.30;96.40;;;;;;4998725;28;20076;-70
2022/07/25 06:13:03;;;;;;;11.88;10.27;;;23.40;96.20;;;;;;5009864;28;20054;-69
2022/07/25 06:15:29;;;;;;;13.32;11.07;;;23.40;96.10;;;;;;5003018;28;20031;-69
2022/07/25 06:17:54;;;;;;;13.18;11.65;;;23.40;95.90;;;;;;5002572;28;20352;-69
2022/07/25 06:20:20;;;;;;;10.77;9.77;;;23.50;95.70;;;;;;5004591;28;20039;-69
2022/07/25 06:22:46;;;;;;;11.38;10.23;;;23.70;95.60;;;;;;5011629;28;20025;-70
2022/07/25 06:25:11;;;;;;;14.98;10.68;;;23.80;95.30;;;;;;5001046;28;20137;-70
2022/07/25 06:27:37;;;;;;;13.50;11.82;;;23.90;95.10;;;;;;4997279;28;20368;-69
2022/07/25 06:30:05;;;;;;;12.55;11.02;;;24.10;95.00;;;;;;4994952;28;20026;-69
2022/07/25 06:32:31;;;;;;;11.90;10.70;;;24.00;94.60;;;;;;4995859;28;20021;-70
2022/07/25 06:34:56;;;;;;;11.15;9.88;;;24.20;94.50;;;;;;5013073;28;20386;-69
2022/07/25 06:37:22;;;;;;;11.00;9.98;;;24.10;94.40;;;;;;5001517;28;20034;-70
2022/07/25 06:39:47;;;;;;;14.18;9.80;;;24.20;94.30;;;;;;4998014;28;20084;-70
2022/07/25 06:42:13;;;;;;;12.10;10.57;;;24.20;94.30;;;;;;4992938;28;20030;-69
2022/07/25 06:44:38;;;;;;;9.88;8.98;;;24.20;94.50;;;;;;4996871;28;20367;-69
2022/07/25 06:47:04;;;;;;;11.32;10.23;;;24.10;94.20;;;;;;5003485;28;20027;-69
2022/07/25 06:49:30;;;;;;;10.48;9.40;;;24.10;94.10;;;;;;4994269;28;20038;-70
2022/07/25 06:51:56;;;;;;;10.77;9.63;;;24.20;94.10;;;;;;5011355;28;20080;-69
2022/07/25 06:54:21;;;;;;;11.18;9.82;;;24.50;94.10;;;;;;5002088;28;20042;-69
2022/07/25 06:56:47;;;;;;;10.45;9.00;;;24.10;94.10;;;;;;4974460;28;20107;-69
2022/07/25 06:59:13;;;;;;;10.18;9.13;;;24.10;94.10;;;;;;4992067;28;20022;-70
2022/07/25 07:01:38;;;;;;;12.13;9.98;;;24.50;94.30;;;;;;4984153;28;20062;-70
2022/07/25 07:04:04;;;;;;;10.95;9.18;;;23.70;94.20;;;;;;4990618;28;20034;-70
2022/07/25 07:06:30;;;;;;;9.05;8.18;;;23.70;94.40;;;;;;4983061;28;20038;-69
2022/07/25 07:08:55;;;;;;;11.25;10.13;;;23.60;94.50;;;;;;4990675;28;20041;-69
2022/07/25 07:11:21;;;;;;;10.38;9.38;;;23.40;94.50;;;;;;4991044;28;20027;-68
2022/07/25 07:13:46;;;;;;;10.20;9.20;;;23.60;94.50;;;;;;4994850;28;20036;-68
2022/07/25 07:16:12;;;;;;;12.40;10.15;;;24.90;94.90;;;;;;4990104;28;20037;-69
2022/07/25 07:18:38;;;;;;;11.18;10.10;;;23.60;94.50;;;;;;4991016;28;20029;-69
2022/07/25 07:21:04;;;;;;;12.88;10.02;;;23.80;94.30;;;;;;4988540;28;20038;-69
2022/07/25 07:23:31;;;;;;;11.25;10.15;;;24.00;94.20;;;;;;4991139;28;20054;-69
2022/07/25 07:25:56;;;;;;;11.15;10.15;;;24.00;94.20;;;;;;4991690;28;20033;-69
2022/07/25 07:28:22;;;;;;;10.55;9.52;;;24.00;93.90;;;;;;4990345;28;20037;-69
2022/07/25 07:30:48;;;;;;;8.85;7.95;;;24.20;93.80;;;;;;4993627;28;20108;-69
2022/07/25 07:33:13;;;;;;;8.00;7.22;;;24.50;93.50;;;;;;5004846;28;20364;-69
2022/07/25 07:35:40;;;;;;;6.93;6.32;;;25.50;93.60;;;;;;4991769;28;20062;-69
2022/07/25 07:38:05;;;;;;;7.30;6.13;;;24.60;93.20;;;;;;4989235;28;20026;-69
2022/07/25 07:40:31;;;;;;;6.45;5.75;;;25.70;93.40;;;;;;4991216;28;20031;-69
2022/07/25 07:42:59;;;;;;;5.82;5.05;;;24.50;92.90;;;;;;4990141;28;20721;-69
2022/07/25 07:45:25;;;;;;;6.50;5.00;;;24.50;92.80;;;;;;4994418;28;20034;-69
2022/07/25 07:47:53;;;;;;;6.82;4.95;;;24.50;92.90;;;;;;4986012;28;20022;-68
2022/07/25 07:50:21;;;;;;;5.45;4.78;;;24.60;92.90;;;;;;4973580;28;20113;-67
2022/07/25 07:52:47;;;;;;;4.68;4.28;;;24.70;92.70;;;;;;4992690;28;20046;-68
2022/07/25 07:58:00;;;;;;;5.50;4.80;;;24.80;92.10;;;;;;4987909;28;20042;-68
2022/07/25 08:00:29;;;;;;;5.15;4.70;;;24.90;91.40;;;;;;4995340;28;20474;-68
2022/07/25 08:02:54;;;;;;;4.93;3.92;;;24.90;92.00;;;;;;4991683;28;20034;-68
2022/07/25 08:05:28;;;;;;;4.32;3.92;;;25.10;91.80;;;;;;4991229;28;20018;-68
2022/07/25 08:07:54;;;;;;;4.95;3.95;;;25.10;90.90;;;;;;4991461;28;20498;-68
2022/07/25 08:10:23;;;;;;;5.43;3.85;;;25.00;91.20;;;;;;4990779;28;20108;-68
2022/07/25 08:12:49;;;;;;;3.80;3.38;;;25.60;91.00;;;;;;4993598;28;20025;-68
2022/07/25 08:15:16;;;;;;;4.00;3.60;;;25.10;91.20;;;;;;4994522;28;20044;-68
2022/07/25 08:17:42;;;;;;;4.82;3.38;;;25.00;91.40;;;;;;4996518;28;20022;-68
2022/07/25 08:20:09;;;;;;;4.35;2.53;;;24.90;91.60;;;;;;4980907;28;20043;-68
2022/07/25 08:22:39;;;;;;;5.85;2.70;;;24.80;91.70;;;;;;4994295;28;20046;-69
2022/07/25 08:25:06;;;;;;;2.80;2.60;;;25.90;92.40;;;;;;4992309;28;20053;-68
2022/07/25 08:27:32;;;;;;;2.85;1.85;;;24.60;91.70;;;;;;4991728;28;20411;-68
2022/07/25 08:30:00;;;;;;;2.60;2.03;;;25.10;91.80;;;;;;4994231;28;20034;-68
2022/07/25 08:32:27;;;;;;;4.50;1.80;;;25.00;91.30;;;;;;5003007;28;20019;-68
2022/07/25 08:34:53;;;;;;;6.15;2.13;;;25.10;91.00;;;;;;4989289;28;20037;-69
2022/07/25 08:37:18;;;;;;;2.45;1.85;;;25.50;90.90;;;;;;4993362;28;20026;-69
2022/07/25 08:39:44;;;;;;;2.95;1.20;;;25.60;90.40;;;;;;4989638;28;20034;-68
2022/07/25 08:42:09;;;;;;;2.17;1.40;;;25.50;90.00;;;;;;4997568;28;20150;-69
2022/07/25 08:44:39;;;;;;;2.67;1.25;;;25.50;89.70;;;;;;4999499;28;20480;-69
2022/07/25 08:47:06;;;;;;;2.78;1.45;;;25.50;90.10;;;;;;4992302;28;20026;-69
2022/07/25 08:49:33;;;;;;;2.83;1.40;;;26.00;90.30;;;;;;4988475;28;20076;-69
2022/07/25 08:51:59;;;;;;;3.05;1.30;;;25.30;90.10;;;;;;4996272;28;20109;-69
2022/07/25 08:54:25;;;;;;;1.65;0.90;;;25.90;90.30;;;;;;4990343;28;20161;-69
2022/07/25 08:56:50;;;;;;;1.42;0.88;;;25.30;90.20;;;;;;4982951;28;20030;-69
2022/07/25 08:59:16;;;;;;;3.83;1.52;;;26.70;90.40;;;;;;4988846;28;20042;-69
2022/07/25 09:01:41;;;;;;;1.77;1.08;;;25.90;89.30;;;;;;4989831;28;20030;-69
2022/07/25 09:04:08;;;;;;;1.80;1.00;;;26.00;88.70;;;;;;4997166;28;20023;-70
2022/07/25 09:06:34;;;;;;;3.85;1.30;;;26.10;88.80;;;;;;4995313;28;20037;-70
2022/07/25 09:09:03;;;;;;;3.13;1.02;;;27.10;89.60;;;;;;4989961;28;20030;-69
2022/07/25 09:11:31;;;;;;;3.88;1.17;;;25.90;89.30;;;;;;4989208;28;20140;-69
2022/07/25 09:14:00;;;;;;;1.52;0.80;;;25.80;89.20;;;;;;4979286;28;20022;-69
2022/07/25 09:16:30;;;;;;;2.15;1.02;;;25.90;90.00;;;;;;4996089;28;20522;-69
2022/07/25 09:19:10;;;;;;;4.00;1.02;;;26.20;90.00;;;;;;4984400;28;20022;-69
2022/07/25 09:21:36;;;;;;;3.13;0.90;;;26.30;88.40;;;;;;4983018;28;20089;-68
2022/07/25 09:24:11;;;;;;;2.22;0.93;;;26.20;89.00;;;;;;4996621;28;20113;-69
2022/07/25 09:26:52;;;;;;;2.30;0.70;;;26.30;88.30;;;;;;4982944;28;20061;-69
2022/07/25 09:29:25;;;;;;;1.90;0.90;;;26.10;89.60;;;;;;4991330;28;20030;-69
2022/07/25 09:31:52;;;;;;;;;;;26.10;87.50;;;;;;4990933;28;20447;-68
2022/07/25 09:34:39;;;;;;;2.50;0.80;;;26.00;90.20;;;;;;5007184;28;20000;-68
2022/07/25 09:37:07;;;;;;;3.35;0.60;;;25.80;90.50;;;;;;4994380;28;20434;-69
2022/07/25 09:39:48;;;;;;;3.60;1.23;;;25.70;90.30;;;;;;4993262;28;20033;-69
2022/07/25 09:42:25;;;;;;;1.67;0.80;;;26.10;90.80;;;;;;5011625;28;20034;-70
2022/07/25 09:45:01;;;;;;;5.07;0.77;;;25.80;89.90;;;;;;4993745;28;20054;-69
2022/07/25 09:47:27;;;;;;;2.95;1.25;;;25.80;90.00;;;;;;4992217;28;20030;-69
2022/07/25 09:49:53;;;;;;;1.88;0.65;;;25.90;90.50;;;;;;4992821;28;20038;-69
2022/07/25 09:52:19;;;;;;;2.25;0.90;;;25.90;90.40;;;;;;4993824;28;20022;-68
2022/07/25 09:54:45;;;;;;;1.30;0.55;;;26.10;90.30;;;;;;4997835;28;20391;-68
2022/07/25 09:57:10;;;;;;;2.40;0.70;;;26.30;90.00;;;;;;4992718;28;20543;-69
2022/07/25 09:59:37;;;;;;;3.72;1.35;;;26.30;89.70;;;;;;4994708;28;20046;-67
2022/07/25 10:02:10;;;;;;;3.50;1.02;;;26.40;89.50;;;;;;5003184;28;20026;-69
2022/07/25 10:04:45;;;;;;;3.10;0.77;;;26.30;88.40;;;;;;4992059;28;20467;-68
2022/07/25 10:07:14;;;;;;;3.53;0.88;;;26.20;90.10;;;;;;4997866;28;20489;-68
2022/07/25 10:09:48;;;;;;;3.83;0.88;;;26.30;89.90;;;;;;4992969;28;21259;-68
2022/07/25 10:12:18;;;;;;;2.50;0.90;;;26.50;88.30;;;;;;4990434;28;20026;-68
2022/07/25 10:15:06;;;;;;;3.50;1.00;;;26.70;89.50;;;;;;4992468;28;20025;-68
2022/07/25 10:17:32;;;;;;;2.65;1.10;;;26.70;89.70;;;;;;4981066;28;20050;-68
2022/07/25 10:20:00;;;;;;;3.45;1.20;;;27.20;89.00;;;;;;4992307;28;20045;-68
2022/07/25 10:22:41;;;;;;;3.03;0.90;;;28.20;89.20;;;;;;4996365;28;20030;-67
2022/07/25 10:25:13;;;;;;;3.85;1.23;;;27.00;88.60;;;;;;4991761;28;20046;-68
2022/07/25 10:27:51;;;;;;;6.68;1.50;;;27.20;87.80;;;;;;4990808;28;20107;-68
2022/07/25 10:30:35;;;;;;;4.90;1.27;;;27.30;87.90;;;;;;4993056;28;20022;-68
2022/07/25 10:33:03;;;;;;;3.83;1.33;;;27.50;85.20;;;;;;4974010;28;20368;-68
2022/07/25 10:35:29;;;;;;;2.75;1.00;;;27.40;85.70;;;;;;4990827;28;20026;-68
2022/07/25 10:37:56;;;;;;;5.25;1.25;;;27.40;84.90;;;;;;4989803;28;20085;-69
2022/07/25 10:40:25;;;;;;;2.20;0.90;;;27.50;84.50;;;;;;4993195;28;20113;-68
2022/07/25 10:42:56;;;;;;;4.63;1.15;;;27.60;84.70;;;;;;4994611;28;20053;-69
2022/07/25 10:45:25;;;;;;;7.03;1.70;;;27.60;84.30;;;;;;4994382;28;20018;-69
2022/07/25 10:47:54;;;;;;;4.28;1.27;;;27.70;83.80;;;;;;4989907;28;20068;-68
2022/07/25 10:50:21;;;;;;;2.97;0.90;;;27.60;83.80;;;;;;4992483;28;20120;-69
2022/07/25 10:52:58;;;;;;;3.22;1.20;;;27.70;83.20;;;;;;4992333;28;20081;-68
2022/07/25 10:55:27;;;;;;;2.17;0.80;;;27.80;82.50;;;;;;4993032;28;20041;-68
2022/07/25 10:58:05;;;;;;;3.72;1.00;;;27.70;81.30;;;;;;4992178;28;20033;-68
2022/07/25 11:00:41;;;;;;;3.00;1.02;;;27.60;81.80;;;;;;4991656;28;20038;-68
2022/07/25 11:03:06;;;;;;;2.35;1.10;;;27.70;80.10;;;;;;4992077;28;20376;-68
2022/07/25 11:05:43;;;;;;;3.25;1.40;;;27.80;79.90;;;;;;4991929;28;20134;-68
2022/07/25 11:08:09;;;;;;;3.20;0.82;;;27.80;80.60;;;;;;4991940;28;20054;-68
2022/07/25 11:10:35;;;;;;;2.83;1.15;;;28.00;79.70;;;;;;4991477;28;20058;-68
2022/07/25 11:13:00;;;;;;;4.65;1.50;;;27.60;79.20;;;;;;4992668;28;20015;-68
2022/07/25 11:15:26;;;;;;;3.60;1.40;;;27.80;79.20;;;;;;4997495;28;20050;-68
2022/07/25 11:17:52;;;;;;;3.80;1.38;;;27.80;79.60;;;;;;4989256;28;20053;-68
2022/07/25 11:20:18;;;;;;;3.45;1.45;;;27.70;80.00;;;;;;4992217;28;20113;-68
2022/07/25 11:22:51;;;;;;;5.22;1.00;;;27.70;80.10;;;;;;4999938;28;20058;-68
2022/07/25 11:25:20;;;;;;;3.78;1.05;;;28.10;80.90;;;;;;5005730;28;20415;-68
2022/07/25 11:27:53;;;;;;;1.75;1.00;;;28.00;80.50;;;;;;4999522;28;20019;-69
2022/07/25 11:30:19;;;;;;;4.72;1.20;;;27.80;80.40;;;;;;4991680;28;20022;-69
2022/07/25 11:32:52;;;;;;;4.63;1.30;;;28.00;80.30;;;;;;4992781;28;20045;-69
2022/07/25 11:35:22;;;;;;;4.60;1.60;;;27.80;80.60;;;;;;5006305;28;20053;-68
2022/07/25 11:37:49;;;;;;;3.55;1.30;;;28.00;80.40;;;;;;4990476;28;20113;-69
2022/07/25 11:40:16;;;;;;;6.47;1.67;;;28.20;79.20;;;;;;5011663;28;20026;-69
2022/07/25 11:42:44;;;;;;;4.57;2.00;;;27.70;79.10;;;;;;5010123;28;20030;-68
2022/07/25 11:45:22;;;;;;;3.88;1.50;;;27.70;79.10;;;;;;5011010;28;20025;-68
2022/07/25 11:48:12;;;;;;;3.63;1.38;;;27.40;80.10;;;;;;4986896;28;20041;-69
2022/07/25 11:50:39;;;;;;;4.95;1.70;;;27.40;78.90;;;;;;4991690;28;20026;-69
2022/07/25 11:53:07;;;;;;;2.17;1.38;;;27.20;80.30;;;;;;4994678;28;20383;-68
2022/07/25 11:55:36;;;;;;;4.70;1.55;;;27.10;80.60;;;;;;5006589;28;20053;-68
2022/07/25 11:58:03;;;;;;;6.88;1.70;;;27.60;81.50;;;;;;5002976;28;20033;-68
2022/07/25 12:00:32;;;;;;;6.93;1.85;;;26.70;81.60;;;;;;5006190;28;20145;-69
2022/07/25 12:03:15;;;;;;;5.43;1.45;;;26.40;82.20;;;;;;4992430;28;20467;-69
2022/07/25 12:05:41;;;;;;;5.13;1.30;;;26.30;83.20;;;;;;4999520;28;20043;-69
2022/07/25 12:08:12;;;;;;;2.92;1.00;;;26.10;81.80;;;;;;4983233;28;20057;-70
2022/07/25 12:10:39;;;;;;;5.10;1.20;;;26.30;79.80;;;;;;4993211;28;20026;-69
2022/07/25 12:13:06;;;;;;;2.17;1.00;;;26.20;80.60;;;;;;4992438;28;20488;-70
2022/07/25 12:15:40;;;;;;;3.10;1.38;;;26.40;80.40;;;;;;4984345;28;20022;-69
2022/07/25 12:18:09;;;;;;;6.03;1.50;;;26.50;78.30;;;;;;4972073;28;20157;-71
2022/07/25 12:20:38;;;;;;;4.10;2.20;;;27.70;80.30;;;;;;4988493;28;20559;-69
2022/07/25 12:23:06;;;;;;;3.80;1.77;;;26.50;79.40;;;;;;4976904;28;20082;-69
2022/07/25 12:25:34;;;;;;;4.97;1.88;;;26.40;79.20;;;;;;4985622;28;20104;-70
2022/07/25 12:28:00;;;;;;;4.78;1.55;;;26.30;79.00;;;;;;4989631;28;20499;-69
2022/07/25 12:30:27;;;;;;;4.28;1.33;;;26.50;79.00;;;;;;4961136;28;20034;-70
2022/07/25 12:32:53;;;;;;;3.85;1.52;;;26.30;79.40;;;;;;4981484;28;20035;-69
2022/07/25 12:35:19;;;;;;;4.18;1.80;;;27.70;80.40;;;;;;4978467;28;20030;-69
2022/07/25 12:37:44;;;;;;;5.35;2.03;;;26.50;79.60;;;;;;4985912;28;20097;-70
2022/07/25 12:40:12;;;;;;;5.70;1.95;;;26.60;80.10;;;;;;4990171;28;20038;-69
2022/07/25 12:42:38;;;;;;;4.43;2.10;;;26.60;80.50;;;;;;4988326;28;20023;-69
2022/07/25 12:45:04;;;;;;;8.73;2.40;;;26.80;80.40;;;;;;4991607;28;20520;-68